createdAt,value
2018-02-01T00:01:41.821Z,18.93
2018-02-01T00:04:09.407Z,18.37
2018-02-01T00:06:36.958Z,19.00
2018-02-01T00:09:04.800Z,18.20
2018-02-01T00:11:32.391Z,20.03
2018-02-01T00:14:00.143Z,20.23
2018-02-01T00:16:27.747Z,20.20
2018-02-01T00:18:55.324Z,21.40
2018-02-01T00:21:22.902Z,24.60
2018-02-01T00:23:50.503Z,22.67
2018-02-01T00:26:18.066Z,25.30
2018-02-01T00:28:45.636Z,20.90
2018-02-01T00:31:13.358Z,22.50
2018-02-01T00:33:41.017Z,23.10
2018-02-01T00:36:08.689Z,26.40
2018-02-01T00:38:36.326Z,26.70
2018-02-01T00:41:03.908Z,21.77
2018-02-01T00:43:31.705Z,22.93
2018-02-01T00:45:59.322Z,22.20
2018-02-01T00:48:26.901Z,22.87
2018-02-01T00:50:54.650Z,19.17
2018-02-01T00:53:22.279Z,19.00
2018-02-01T00:55:49.841Z,22.10
2018-02-01T00:58:17.411Z,23.50
2018-02-01T01:00:45.028Z,22.47
2018-02-01T01:03:12.774Z,21.50
2018-02-01T01:05:40.343Z,22.60
2018-02-01T01:08:08.064Z,21.97
2018-02-01T01:10:35.659Z,23.03
2018-02-01T01:13:03.407Z,21.70
2018-02-01T01:15:30.991Z,23.80
2018-02-01T01:17:58.548Z,21.93
2018-02-01T01:20:26.128Z,24.60
2018-02-01T01:22:53.720Z,24.97
2018-02-01T01:25:21.491Z,23.03
2018-02-01T01:27:49.174Z,22.97
2018-02-01T01:30:16.792Z,25.30
2018-02-01T01:32:44.359Z,23.10
2018-02-01T01:35:12.164Z,23.00
2018-02-01T01:37:39.772Z,23.50
2018-02-01T01:40:07.339Z,24.37
2018-02-01T01:42:34.915Z,23.13
2018-02-01T01:45:02.598Z,23.53
2018-02-01T01:47:30.164Z,22.63
2018-02-01T01:49:57.735Z,26.03
2018-02-01T01:52:25.337Z,27.97
2018-02-01T01:54:52.889Z,28.40
2018-02-01T01:57:20.454Z,30.60
2018-02-01T01:59:48.059Z,24.00
2018-02-01T02:02:15.623Z,23.80
2018-02-01T02:04:43.307Z,27.03
2018-02-01T02:07:10.907Z,26.97
2018-02-01T02:09:38.467Z,25.93
2018-02-01T02:12:06.083Z,21.97
2018-02-01T02:14:33.682Z,23.80
2018-02-01T02:17:01.236Z,24.90
2018-02-01T02:19:28.814Z,23.80
2018-02-01T02:21:56.531Z,23.90
2018-02-01T02:24:24.125Z,23.20
2018-02-01T02:26:51.833Z,22.47
2018-02-01T02:29:19.450Z,24.77
2018-02-01T02:31:47.972Z,22.27
2018-02-01T02:34:15.542Z,26.23
2018-02-01T02:36:43.307Z,22.70
2018-02-01T02:39:10.868Z,24.80
2018-02-01T02:41:38.471Z,26.33
2018-02-01T02:44:06.093Z,24.00
2018-02-01T02:46:33.671Z,31.03
2018-02-01T02:49:01.245Z,28.37
2018-02-01T02:51:29.080Z,25.10
2018-02-01T02:53:56.642Z,27.60
2018-02-01T02:56:24.217Z,34.70
2018-02-01T02:58:51.821Z,25.40
2018-02-01T03:01:19.403Z,25.67
2018-02-01T03:03:46.968Z,25.40
2018-02-01T03:06:14.656Z,24.10
2018-02-01T03:08:42.320Z,23.43
2018-02-01T03:11:09.967Z,23.23
2018-02-01T03:13:37.569Z,23.23
2018-02-01T03:16:05.134Z,23.37
2018-02-01T03:18:32.686Z,21.70
2018-02-01T03:21:00.283Z,22.60
2018-02-01T03:23:27.886Z,23.90
2018-02-01T03:25:55.440Z,22.53
2018-02-01T03:28:23.039Z,20.87
2018-02-01T03:30:50.642Z,22.97
2018-02-01T03:33:18.228Z,24.17
2018-02-01T03:35:45.825Z,24.87
2018-02-01T03:38:13.432Z,23.73
2018-02-01T03:40:41.111Z,28.50
2018-02-01T03:43:08.760Z,25.50
2018-02-01T03:45:36.332Z,22.27
2018-02-01T03:48:03.919Z,23.33
2018-02-01T03:50:31.513Z,21.50
2018-02-01T03:52:59.087Z,20.60
2018-02-01T03:55:26.685Z,24.00
2018-02-01T03:57:54.300Z,27.60
2018-02-01T04:00:21.983Z,34.83
2018-02-01T04:02:49.634Z,38.53
2018-02-01T04:05:17.229Z,37.63
2018-02-01T04:07:44.985Z,40.60
2018-02-01T04:10:12.686Z,53.73
2018-02-01T04:12:40.310Z,47.30
2018-02-01T04:15:07.904Z,49.20
2018-02-01T04:17:35.472Z,46.07
2018-02-01T04:20:03.086Z,46.70
2018-02-01T04:22:30.730Z,33.20
2018-02-01T04:24:58.580Z,29.20
2018-02-01T04:27:26.261Z,29.53
2018-02-01T04:29:53.819Z,30.67
2018-02-01T04:32:21.386Z,26.17
2018-02-01T04:34:48.995Z,23.37
2018-02-01T04:37:16.701Z,24.43
2018-02-01T04:39:44.266Z,28.43
2018-02-01T04:42:11.871Z,33.30
2018-02-01T04:44:39.472Z,28.57
2018-02-01T04:47:07.050Z,38.83
2018-02-01T04:49:34.661Z,28.83
2018-02-01T04:52:02.258Z,32.20
2018-02-01T04:54:29.866Z,29.40
2018-02-01T04:56:57.482Z,32.47
2018-02-01T04:59:25.282Z,32.23
2018-02-01T05:01:52.849Z,34.93
2018-02-01T05:04:20.451Z,38.33
2018-02-01T05:06:48.043Z,29.20
2018-02-01T05:09:15.707Z,45.10
2018-02-01T05:11:43.334Z,32.43
2018-02-01T05:14:10.921Z,31.33
2018-02-01T05:16:38.508Z,26.43
2018-02-01T05:19:06.129Z,28.37
2018-02-01T05:21:33.694Z,29.00
2018-02-01T05:24:01.264Z,31.60
2018-02-01T05:26:28.871Z,35.63
2018-02-01T05:28:56.448Z,26.67
2018-02-01T05:31:24.018Z,27.97
2018-02-01T05:33:51.637Z,26.43
2018-02-01T05:36:19.395Z,28.13
2018-02-01T05:38:46.969Z,27.80
2018-02-01T05:41:14.626Z,25.07
2018-02-01T05:43:42.164Z,23.07
2018-02-01T05:46:09.704Z,22.83
2018-02-01T05:48:37.312Z,23.13
2018-02-01T05:51:04.907Z,25.47
2018-02-01T05:53:32.607Z,23.03
2018-02-01T05:56:00.220Z,23.77
2018-02-01T05:58:27.933Z,28.13
2018-02-01T06:00:55.600Z,25.20
2018-02-01T06:03:23.269Z,24.73
2018-02-01T06:05:50.886Z,23.97
2018-02-01T06:08:18.466Z,24.87
2018-02-01T06:10:46.072Z,25.83
2018-02-01T06:13:13.700Z,24.17
2018-02-01T06:15:41.266Z,22.93
2018-02-01T06:18:08.865Z,34.57
2018-02-01T06:20:36.431Z,23.03
2018-02-01T06:23:04.168Z,21.37
2018-02-01T06:25:31.766Z,30.80
2018-02-01T06:27:59.554Z,33.53
2018-02-01T06:30:27.336Z,36.30
2018-02-01T06:32:54.926Z,19.30
2018-02-01T06:35:22.490Z,19.20
2018-02-01T06:37:50.425Z,19.67
2018-02-01T06:40:18.039Z,21.83
2018-02-01T06:42:45.621Z,24.03
2018-02-01T06:45:13.183Z,32.90
2018-02-01T06:47:40.800Z,26.60
2018-02-01T06:50:08.367Z,24.30
2018-02-01T06:52:35.930Z,26.73
2018-02-01T06:55:03.558Z,32.23
2018-02-01T06:57:31.123Z,31.47
2018-02-01T06:59:58.872Z,28.10
2018-02-01T07:02:26.548Z,27.53
2018-02-01T07:04:54.120Z,27.10
2018-02-01T07:07:21.687Z,28.27
2018-02-01T07:09:49.526Z,26.80
2018-02-01T07:12:17.109Z,18.83
2018-02-01T07:14:44.680Z,22.33
2018-02-01T07:17:12.283Z,15.40
2018-02-01T07:19:39.848Z,17.57
2018-02-01T07:22:07.684Z,15.30
2018-02-01T07:24:35.523Z,15.67
2018-02-01T07:27:03.103Z,12.93
2018-02-01T07:29:30.821Z,14.57
2018-02-01T07:31:58.450Z,15.63
2018-02-01T07:34:26.023Z,16.50
2018-02-01T07:36:53.597Z,16.97
2018-02-01T07:39:21.191Z,19.57
2018-02-01T07:41:48.776Z,18.33
2018-02-01T07:44:16.398Z,16.93
2018-02-01T07:46:44.056Z,17.63
2018-02-01T07:49:11.790Z,15.40
2018-02-01T07:51:39.575Z,17.93
2018-02-01T07:54:07.249Z,14.93
2018-02-01T07:56:34.825Z,16.33
2018-02-01T07:59:02.424Z,12.80
2018-02-01T08:01:30.053Z,14.10
2018-02-01T08:03:57.707Z,16.47
2018-02-01T08:06:25.307Z,14.00
2018-02-01T08:08:53.025Z,13.80
2018-02-01T08:13:53.461Z,14.73
2018-02-01T08:16:21.046Z,19.37
2018-02-01T08:18:48.618Z,17.80
2018-02-01T08:21:16.222Z,17.60
2018-02-01T08:23:43.794Z,19.80
2018-02-01T08:26:11.371Z,23.03
2018-02-01T08:28:38.983Z,23.60
2018-02-01T08:31:06.674Z,24.63
2018-02-01T08:33:34.251Z,18.43
2018-02-01T08:36:01.866Z,19.53
2018-02-01T08:38:29.475Z,19.23
2018-02-01T08:40:57.057Z,13.50
2018-02-01T08:43:24.699Z,12.97
2018-02-01T08:45:52.283Z,13.10
2018-02-01T08:48:19.865Z,12.70
2018-02-01T08:50:47.477Z,15.03
2018-02-01T08:53:15.027Z,15.00
2018-02-01T08:55:42.694Z,14.80
2018-02-01T08:58:10.886Z,12.93
2018-02-01T09:00:38.482Z,15.27
2018-02-01T09:03:06.052Z,15.33
2018-02-01T09:05:33.656Z,16.93
2018-02-01T09:08:01.400Z,10.70
2018-02-01T09:10:29.064Z,11.83
2018-02-01T09:12:56.724Z,12.00
2018-02-01T09:15:24.287Z,12.73
2018-02-01T09:17:51.873Z,11.50
2018-02-01T09:20:19.523Z,11.70
2018-02-01T09:22:47.184Z,11.30
2018-02-01T09:25:14.784Z,11.10
2018-02-01T09:27:42.470Z,13.30
2018-02-01T09:30:10.146Z,9.17
2018-02-01T09:32:37.711Z,13.13
2018-02-01T09:35:05.489Z,10.83
2018-02-01T09:37:33.056Z,11.30
2018-02-01T09:40:00.624Z,8.70
2018-02-01T09:42:28.238Z,10.23
2018-02-01T09:44:55.927Z,8.23
2018-02-01T09:47:23.488Z,8.43
2018-02-01T09:49:51.078Z,7.10
2018-02-01T09:52:18.926Z,7.63
2018-02-01T09:54:46.585Z,8.60
2018-02-01T09:57:14.434Z,9.37
2018-02-01T09:59:42.000Z,7.13
2018-02-01T10:02:09.772Z,7.10
2018-02-01T10:04:37.376Z,6.50
2018-02-01T10:07:05.093Z,6.87
2018-02-01T10:09:32.656Z,7.47
2018-02-01T10:12:00.420Z,5.80
2018-02-01T10:14:27.997Z,6.80
2018-02-01T10:16:55.562Z,4.53
2018-02-01T10:19:23.211Z,6.53
2018-02-01T10:21:50.858Z,7.00
2018-02-01T10:24:18.506Z,6.40
2018-02-01T10:26:46.111Z,8.93
2018-02-01T10:29:13.656Z,5.20
2018-02-01T10:31:41.207Z,8.07
2018-02-01T10:34:08.976Z,6.00
2018-02-01T10:36:36.514Z,6.63
2018-02-01T10:39:04.138Z,6.70
2018-02-01T10:41:31.720Z,5.87
2018-02-01T10:43:59.273Z,7.77
2018-02-01T10:46:26.838Z,8.67
2018-02-01T10:48:54.427Z,8.40
2018-02-01T10:51:21.962Z,6.97
2018-02-01T10:53:49.680Z,9.10
2018-02-01T10:56:17.331Z,7.87
2018-02-01T10:58:44.886Z,6.83
2018-02-01T11:01:12.484Z,8.03
2018-02-01T11:03:40.058Z,6.33
2018-02-01T11:06:07.608Z,7.60
2018-02-01T11:08:35.151Z,8.00
2018-02-01T11:11:02.728Z,6.53
2018-02-01T11:13:30.346Z,9.60
2018-02-01T11:15:57.922Z,7.40
2018-02-01T11:18:25.523Z,7.40
2018-02-01T11:20:53.095Z,7.73
2018-02-01T11:23:20.645Z,6.00
2018-02-01T11:25:48.266Z,6.77
2018-02-01T11:28:15.836Z,7.47
2018-02-01T11:30:43.572Z,8.60
2018-02-01T11:33:11.159Z,7.50
2018-02-01T11:35:38.702Z,5.90
2018-02-01T11:38:06.284Z,5.67
2018-02-01T11:40:33.889Z,7.30
2018-02-01T11:43:02.376Z,4.93
2018-02-01T11:45:29.921Z,8.40
2018-02-01T11:47:57.514Z,8.27
2018-02-01T11:50:25.063Z,7.10
2018-02-01T11:52:52.617Z,6.57
2018-02-01T11:55:20.201Z,6.40
2018-02-01T11:57:47.758Z,8.00
2018-02-01T12:00:15.299Z,6.03
2018-02-01T12:02:42.874Z,6.27
2018-02-01T12:05:10.433Z,6.90
2018-02-01T12:07:37.988Z,6.37
2018-02-01T12:10:05.555Z,6.30
2018-02-01T12:12:33.110Z,6.47
2018-02-01T12:15:00.695Z,6.10
2018-02-01T12:17:28.289Z,6.07
2018-02-01T12:19:55.856Z,6.13
2018-02-01T12:22:23.423Z,7.30
2018-02-01T12:24:51.033Z,6.43
2018-02-01T12:27:18.761Z,6.47
2018-02-01T12:29:46.368Z,8.87
2018-02-01T12:32:13.975Z,5.90
2018-02-01T12:34:41.542Z,6.90
2018-02-01T12:37:09.109Z,6.30
2018-02-01T12:39:36.691Z,5.70
2018-02-01T12:42:04.261Z,7.17
2018-02-01T12:44:32.007Z,6.63
2018-02-01T12:46:59.603Z,7.23
2018-02-01T12:49:27.156Z,8.47
2018-02-01T12:51:54.711Z,7.40
2018-02-01T12:54:22.283Z,7.03
2018-02-01T12:56:49.907Z,7.87
2018-02-01T12:59:17.480Z,6.90
2018-02-01T13:01:45.063Z,6.03
2018-02-01T13:04:12.599Z,7.50
2018-02-01T13:06:40.155Z,7.27
2018-02-01T13:09:07.765Z,5.93
2018-02-01T13:11:35.308Z,6.10
2018-02-01T13:14:02.855Z,6.90
2018-02-01T13:16:30.430Z,8.33
2018-02-01T13:18:57.989Z,7.27
2018-02-01T13:21:25.564Z,8.30
2018-02-01T13:23:53.176Z,7.03
2018-02-01T13:26:20.870Z,7.10
2018-02-01T13:28:48.440Z,6.43
2018-02-01T13:31:16.145Z,7.10
2018-02-01T13:33:43.720Z,7.03
2018-02-01T13:36:11.297Z,7.10
2018-02-01T13:38:38.924Z,7.73
2018-02-01T13:41:06.593Z,7.40
2018-02-01T13:43:34.172Z,6.70
2018-02-01T13:46:01.929Z,6.73
2018-02-01T13:48:29.787Z,7.27
2018-02-01T13:50:57.365Z,7.17
2018-02-01T13:53:24.972Z,7.23
2018-02-01T13:55:52.551Z,7.50
2018-02-01T13:58:20.143Z,7.70
2018-02-01T14:00:47.750Z,9.00
2018-02-01T14:03:15.342Z,8.73
2018-02-01T14:05:43.009Z,7.80
2018-02-01T14:08:10.669Z,9.17
2018-02-01T14:10:38.244Z,11.53
2018-02-01T14:13:05.811Z,9.83
2018-02-01T14:15:33.555Z,8.03
2018-02-01T14:18:01.513Z,8.90
2018-02-01T14:20:29.097Z,8.40
2018-02-01T14:22:56.711Z,9.57
2018-02-01T14:25:24.320Z,11.00
2018-02-01T14:27:51.894Z,12.53
2018-02-01T14:30:19.511Z,9.00
2018-02-01T14:32:47.287Z,9.60
2018-02-01T14:35:15.737Z,9.33
2018-02-01T14:37:43.344Z,9.53
2018-02-01T14:40:10.928Z,11.47
2018-02-01T14:42:38.505Z,11.30
2018-02-01T14:45:06.107Z,9.10
2018-02-01T14:47:33.893Z,8.00
2018-02-01T14:50:01.479Z,10.67
2018-02-01T14:52:29.080Z,13.20
2018-02-01T14:54:56.668Z,10.93
2018-02-01T14:57:24.333Z,10.23
2018-02-01T14:59:51.957Z,8.93
2018-02-01T15:02:19.660Z,10.47
2018-02-01T15:04:47.312Z,9.33
2018-02-01T15:07:14.985Z,13.30
2018-02-01T15:09:42.551Z,11.37
2018-02-01T15:12:10.130Z,14.23
2018-02-01T15:14:37.838Z,10.70
2018-02-01T15:17:05.413Z,10.97
2018-02-01T15:19:33.087Z,8.97
2018-02-01T15:22:00.925Z,14.97
2018-02-01T15:24:28.618Z,17.53
2018-02-01T15:26:56.223Z,18.33
2018-02-01T15:29:23.846Z,14.87
2018-02-01T15:31:51.597Z,17.30
2018-02-01T15:34:19.254Z,19.87
2018-02-01T15:36:46.881Z,16.13
2018-02-01T15:39:14.699Z,18.33
2018-02-01T15:41:42.464Z,36.80
2018-02-01T15:44:10.064Z,15.70
2018-02-01T15:46:37.831Z,25.77
2018-02-01T15:49:05.513Z,23.57
2018-02-01T15:51:33.155Z,22.80
2018-02-01T15:54:00.774Z,26.70
2018-02-01T15:56:28.427Z,24.70
2018-02-01T15:58:56.059Z,21.70
2018-02-01T16:01:23.727Z,16.23
2018-02-01T16:03:51.384Z,13.93
2018-02-01T16:06:19.022Z,15.33
2018-02-01T16:08:46.645Z,20.67
2018-02-01T16:11:14.257Z,25.33
2018-02-01T16:13:43.054Z,29.20
2018-02-01T16:16:11.130Z,49.50
2018-02-01T16:18:38.786Z,41.60
2018-02-01T16:21:06.396Z,44.63
2018-02-01T16:23:33.978Z,39.50
2018-02-01T16:26:01.743Z,33.67
2018-02-01T16:28:29.470Z,32.33
2018-02-01T16:30:57.550Z,29.00
2018-02-01T16:33:25.213Z,28.77
2018-02-01T16:35:52.812Z,25.37
2018-02-01T16:38:20.440Z,30.30
2018-02-01T16:40:48.012Z,32.50
2018-02-01T16:43:15.747Z,20.87
2018-02-01T16:45:43.385Z,21.20
2018-02-01T16:48:10.949Z,22.33
2018-02-01T16:50:38.511Z,24.10
2018-02-01T16:53:06.205Z,19.67
2018-02-01T16:55:33.768Z,21.57
2018-02-01T16:58:01.328Z,14.03
2018-02-01T17:00:29.055Z,17.80
2018-02-01T17:02:56.831Z,20.50
2018-02-01T17:05:24.495Z,17.50
2018-02-01T17:07:52.094Z,20.60
2018-02-01T17:10:19.654Z,21.40
2018-02-01T17:12:47.219Z,21.77
2018-02-01T17:15:14.818Z,17.07
2018-02-01T17:17:42.391Z,18.03
2018-02-01T17:20:09.979Z,14.87
2018-02-01T17:22:37.944Z,18.67
2018-02-01T17:25:05.509Z,17.87
2018-02-01T17:27:33.069Z,17.53
2018-02-01T17:30:00.671Z,27.47
2018-02-01T17:32:28.237Z,21.87
2018-02-01T17:34:55.832Z,15.87
2018-02-01T17:37:23.424Z,14.83
2018-02-01T17:39:51.170Z,16.83
2018-02-01T17:42:18.794Z,16.67
2018-02-01T17:44:46.413Z,18.53
2018-02-01T17:47:13.968Z,23.13
2018-02-01T17:49:41.523Z,15.63
2018-02-01T17:52:09.139Z,19.03
2018-02-01T17:54:36.710Z,23.03
2018-02-01T17:57:04.273Z,21.10
2018-02-01T17:59:31.859Z,23.87
2018-02-01T18:01:59.691Z,27.57
2018-02-01T18:04:27.238Z,20.87
2018-02-01T18:06:54.949Z,22.10
2018-02-01T18:09:22.492Z,27.13
2018-02-01T18:11:50.061Z,23.40
2018-02-01T18:14:17.777Z,19.43
2018-02-01T18:16:45.354Z,52.30
2018-02-01T18:19:12.949Z,40.93
2018-02-01T18:21:40.708Z,27.40
2018-02-01T18:24:08.254Z,24.60
2018-02-01T18:26:35.802Z,30.87
2018-02-01T18:29:06.908Z,37.30
2018-02-01T18:31:35.038Z,37.87
2018-02-01T18:34:02.630Z,33.87
2018-02-01T18:36:30.227Z,33.93
2018-02-01T18:38:57.997Z,35.47
2018-02-01T18:41:25.544Z,33.30
2018-02-01T18:43:53.159Z,31.93
2018-02-01T18:46:20.699Z,30.57
2018-02-01T18:48:48.360Z,27.10
2018-02-01T18:51:15.967Z,31.33
2018-02-01T18:53:43.691Z,27.40
2018-02-01T18:56:11.247Z,25.90
2018-02-01T18:58:38.971Z,28.77
2018-02-01T19:01:06.526Z,26.17
2018-02-01T19:03:34.101Z,29.37
2018-02-01T19:06:01.698Z,33.87
2018-02-01T19:08:29.265Z,29.73
2018-02-01T19:10:56.827Z,30.40
2018-02-01T19:13:24.595Z,36.10
2018-02-01T19:15:52.160Z,48.13
2018-02-01T19:18:19.898Z,37.73
2018-02-01T19:20:47.480Z,24.17
2018-02-01T19:23:15.226Z,20.70
2018-02-01T19:25:43.110Z,25.87
2018-02-01T19:28:10.717Z,25.80
2018-02-01T19:30:38.285Z,27.27
2018-02-01T19:33:05.852Z,27.53
2018-02-01T19:35:33.528Z,31.97
2018-02-01T19:38:01.103Z,30.33
2018-02-01T19:40:28.679Z,32.93
2018-02-01T19:42:56.287Z,26.20
2018-02-01T19:45:23.831Z,24.33
2018-02-01T19:47:51.430Z,23.90
2018-02-01T19:50:19.033Z,29.73
2018-02-01T19:52:46.600Z,25.93
2018-02-01T19:55:14.172Z,21.70
2018-02-01T19:57:41.759Z,23.70
2018-02-01T20:00:09.542Z,31.73
2018-02-01T20:02:37.114Z,27.90
2018-02-01T20:05:04.688Z,27.87
2018-02-01T20:07:32.237Z,30.17
2018-02-01T20:09:59.799Z,26.13
2018-02-01T20:12:27.468Z,21.80
2018-02-01T20:14:55.089Z,27.10
2018-02-01T20:17:22.678Z,23.87
2018-02-01T20:19:50.437Z,20.33
2018-02-01T20:22:18.093Z,21.70
2018-02-01T20:24:45.702Z,23.10
2018-02-01T20:27:13.280Z,19.27
2018-02-01T20:29:40.889Z,20.80
2018-02-01T20:32:08.458Z,27.27
2018-02-01T20:34:36.105Z,43.40
2018-02-01T20:37:03.662Z,23.23
2018-02-01T20:39:31.257Z,23.00
2018-02-01T20:41:59.685Z,20.33
2018-02-01T20:44:27.289Z,31.13
2018-02-01T20:46:54.850Z,22.90
2018-02-01T20:49:22.451Z,23.80
2018-02-01T20:51:50.009Z,22.73
2018-02-01T20:54:17.572Z,24.93
2018-02-01T20:56:45.155Z,27.00
2018-02-01T20:59:12.791Z,22.73
2018-02-01T21:01:40.485Z,23.60
2018-02-01T21:04:08.087Z,23.57
2018-02-01T21:06:35.644Z,27.23
2018-02-01T21:09:03.486Z,25.43
2018-02-01T21:11:31.073Z,26.90
2018-02-01T21:13:58.618Z,24.27
2018-02-01T21:16:26.160Z,24.23
2018-02-01T21:18:53.872Z,27.90
2018-02-01T21:21:21.444Z,25.97
2018-02-01T21:23:48.994Z,25.20
2018-02-01T21:26:16.707Z,25.77
2018-02-01T21:28:44.297Z,28.27
2018-02-01T21:31:11.934Z,29.53
2018-02-01T21:33:39.677Z,32.07
2018-02-01T21:36:07.232Z,32.80
2018-02-01T21:38:34.784Z,29.33
2018-02-01T21:41:02.364Z,26.83
2018-02-01T21:43:29.928Z,24.30
2018-02-01T21:45:57.480Z,24.43
2018-02-01T21:48:25.085Z,23.43
2018-02-01T21:50:52.650Z,22.00
2018-02-01T21:53:20.212Z,25.60
2018-02-01T21:55:47.834Z,39.67
2018-02-01T21:58:15.482Z,31.93
2018-02-01T22:00:43.070Z,35.00
2018-02-01T22:03:10.658Z,32.90
2018-02-01T22:05:38.229Z,29.80
2018-02-01T22:08:05.773Z,30.00
2018-02-01T22:10:33.348Z,26.80
2018-02-01T22:13:01.065Z,29.17
2018-02-01T22:15:28.621Z,31.40
2018-02-01T22:17:56.388Z,31.40
2018-02-01T22:20:23.949Z,30.47
2018-02-01T22:22:51.504Z,28.60
2018-02-01T22:25:19.114Z,28.40
2018-02-01T22:27:46.812Z,24.93
2018-02-01T22:30:14.369Z,24.53
2018-02-01T22:32:41.959Z,25.33
2018-02-01T22:35:09.511Z,25.80
2018-02-01T22:37:37.066Z,27.60
2018-02-01T22:40:04.719Z,25.70
2018-02-01T22:42:32.272Z,25.00
2018-02-01T22:44:59.889Z,26.20
2018-02-01T22:47:27.497Z,25.10
2018-02-01T22:49:55.055Z,27.30
2018-02-01T22:52:22.615Z,31.87
2018-02-01T22:54:50.294Z,31.03
2018-02-01T22:57:17.958Z,34.37
2018-02-01T22:59:45.604Z,31.10
2018-02-01T23:02:13.258Z,33.10
2018-02-01T23:04:40.801Z,30.80
2018-02-01T23:07:08.356Z,28.70
2018-02-01T23:09:35.981Z,32.60
2018-02-01T23:12:03.555Z,28.80
2018-02-01T23:14:31.115Z,25.70
2018-02-01T23:16:58.701Z,27.37
2018-02-01T23:19:26.261Z,30.83
2018-02-01T23:21:53.816Z,28.77
2018-02-01T23:24:21.425Z,27.63
2018-02-01T23:26:48.980Z,32.57
2018-02-01T23:29:16.545Z,28.40
2018-02-01T23:31:44.203Z,29.53
2018-02-01T23:34:11.751Z,31.93
2018-02-01T23:36:39.303Z,40.00
2018-02-01T23:39:06.965Z,31.30
2018-02-01T23:41:34.529Z,44.23
2018-02-01T23:44:02.099Z,47.57
2018-02-01T23:46:29.672Z,37.00
2018-02-01T23:48:57.231Z,34.03
2018-02-01T23:51:24.813Z,31.77
2018-02-01T23:53:52.425Z,32.47
2018-02-01T23:56:19.967Z,30.27
2018-02-01T23:58:47.658Z,29.37
